sensor_id;sensor_type;location;lat;lon;timestamp;pressure;altitude;pressure_sealevel;temperature
79488;BMP180;68949;53.176;18.088;2023-05-07T00:00:36;101381.60;;;
79488;BMP180;68949;53.176;18.088;2023-05-07T00:03:19;101381.20;;;
79488;BMP180;68949;53.176;18.088;2023-05-07T00:05:46;101373.60;;;
79488;BMP180;68949;53.176;18.088;2023-05-07T00:08:13;101377.80;;;
79488;BMP180;68949;53.176;18.088;2023-05-07T00:10:40;101372.60;;;
79488;BMP180;68949;53.176;18.088;2023-05-07T00:13:07;101370.20;;;
79488;BMP180;68949;53.176;18.088;2023-05-07T00:15:34;101370.00;;;
79488;BMP180;68949;53.176;18.088;2023-05-07T00:18:01;101375.40;;;
79488;BMP180;68949;53.176;18.088;2023-05-07T00:20:27;101371.20;;;
79488;BMP180;68949;53.176;18.088;2023-05-07T00:22:54;101373.40;;;
79488;BMP180;68949;53.176;18.088;2023-05-07T00:25:21;101375.40;;;
79488;BMP180;68949;53.176;18.088;2023-05-07T00:27:48;101374.60;;;
79488;BMP180;68949;53.176;18.088;2023-05-07T00:30:15;101370.00;;;
79488;BMP180;68949;53.176;18.088;2023-05-07T00:32:42;101371.00;;;
79488;BMP180;68949;53.176;18.088;2023-05-07T00:35:11;101371.20;;;
79488;BMP180;68949;53.176;18.088;2023-05-07T00:37:39;101375.80;;;
79488;BMP180;68949;53.176;18.088;2023-05-07T00:40:07;101375.00;;;
79488;BMP180;68949;53.176;18.088;2023-05-07T00:42:34;101375.80;;;
79488;BMP180;68949;53.176;18.088;2023-05-07T00:45:01;101377.40;;;
79488;BMP180;68949;53.176;18.088;2023-05-07T00:47:28;101379.20;;;
79488;BMP180;68949;53.176;18.088;2023-05-07T00:49:56;101383.80;;;
79488;BMP180;68949;53.176;18.088;2023-05-07T00:52:25;101383.40;;;
79488;BMP180;68949;53.176;18.088;2023-05-07T00:54:53;101385.20;;;
79488;BMP180;68949;53.176;18.088;2023-05-07T00:57:21;101388.00;;;
79488;BMP180;68949;53.176;18.088;2023-05-07T00:59:48;101387.20;;;
79488;BMP180;68949;53.176;18.088;2023-05-07T01:02:16;101384.40;;;
79488;BMP180;68949;53.176;18.088;2023-05-07T01:04:43;101385.60;;;
79488;BMP180;68949;53.176;18.088;2023-05-07T01:07:10;101381.20;;;
79488;BMP180;68949;53.176;18.088;2023-05-07T01:09:37;101379.20;;;
79488;BMP180;68949;53.176;18.088;2023-05-07T01:12:05;101381.60;;;
79488;BMP180;68949;53.176;18.088;2023-05-07T01:14:33;101379.40;;;
79488;BMP180;68949;53.176;18.088;2023-05-07T01:17:00;101381.40;;;
79488;BMP180;68949;53.176;18.088;2023-05-07T01:19:29;101381.00;;;
79488;BMP180;68949;53.176;18.088;2023-05-07T01:22:04;101376.00;;;
79488;BMP180;68949;53.176;18.088;2023-05-07T01:24:37;101377.80;;;
79488;BMP180;68949;53.176;18.088;2023-05-07T01:27:05;101374.00;;;
79488;BMP180;68949;53.176;18.088;2023-05-07T01:29:32;101382.80;;;
79488;BMP180;68949;53.176;18.088;2023-05-07T01:32:01;101392.60;;;
79488;BMP180;68949;53.176;18.088;2023-05-07T01:34:32;101397.20;;;
79488;BMP180;68949;53.176;18.088;2023-05-07T01:37:01;101398.80;;;
79488;BMP180;68949;53.176;18.088;2023-05-07T01:39:29;101398.80;;;
79488;BMP180;68949;53.176;18.088;2023-05-07T01:41:57;101391.60;;;
79488;BMP180;68949;53.176;18.088;2023-05-07T01:44:27;101390.00;;;
79488;BMP180;68949;53.176;18.088;2023-05-07T01:46:54;101399.40;;;
79488;BMP180;68949;53.176;18.088;2023-05-07T01:49:21;101401.80;;;
79488;BMP180;68949;53.176;18.088;2023-05-07T01:51:49;101396.20;;;
79488;BMP180;68949;53.176;18.088;2023-05-07T01:54:16;101401.00;;;
79488;BMP180;68949;53.176;18.088;2023-05-07T01:56:43;101407.00;;;
79488;BMP180;68949;53.176;18.088;2023-05-07T01:59:10;101407.60;;;
79488;BMP180;68949;53.176;18.088;2023-05-07T02:01:37;101412.80;;;
79488;BMP180;68949;53.176;18.088;2023-05-07T02:04:04;101419.80;;;
79488;BMP180;68949;53.176;18.088;2023-05-07T02:06:30;101421.80;;;
79488;BMP180;68949;53.176;18.088;2023-05-07T02:09:02;101414.40;;;
79488;BMP180;68949;53.176;18.088;2023-05-07T02:11:29;101414.60;;;
79488;BMP180;68949;53.176;18.088;2023-05-07T02:13:56;101402.20;;;
79488;BMP180;68949;53.176;18.088;2023-05-07T02:16:23;101409.40;;;
79488;BMP180;68949;53.176;18.088;2023-05-07T02:18:51;101408.20;;;
79488;BMP180;68949;53.176;18.088;2023-05-07T02:21:18;101414.00;;;
79488;BMP180;68949;53.176;18.088;2023-05-07T02:23:45;101414.80;;;
79488;BMP180;68949;53.176;18.088;2023-05-07T02:26:12;101416.00;;;
79488;BMP180;68949;53.176;18.088;2023-05-07T02:28:39;101413.60;;;
79488;BMP180;68949;53.176;18.088;2023-05-07T02:31:06;101421.80;;;
79488;BMP180;68949;53.176;18.088;2023-05-07T02:33:33;101426.80;;;
79488;BMP180;68949;53.176;18.088;2023-05-07T02:36:10;101426.60;;;
79488;BMP180;68949;53.176;18.088;2023-05-07T02:38:44;101433.00;;;
79488;BMP180;68949;53.176;18.088;2023-05-07T02:41:12;101419.60;;;
79488;BMP180;68949;53.176;18.088;2023-05-07T02:43:38;101420.00;;;
79488;BMP180;68949;53.176;18.088;2023-05-07T02:46:08;101423.80;;;
79488;BMP180;68949;53.176;18.088;2023-05-07T02:48:37;101419.60;;;
79488;BMP180;68949;53.176;18.088;2023-05-07T02:51:04;101417.80;;;
79488;BMP180;68949;53.176;18.088;2023-05-07T02:53:32;101416.60;;;
79488;BMP180;68949;53.176;18.088;2023-05-07T02:56:01;101418.60;;;
79488;BMP180;68949;53.176;18.088;2023-05-07T02:58:28;101414.60;;;
79488;BMP180;68949;53.176;18.088;2023-05-07T03:00:55;101416.20;;;
79488;BMP180;68949;53.176;18.088;2023-05-07T03:03:29;101417.40;;;
79488;BMP180;68949;53.176;18.088;2023-05-07T03:05:55;101416.40;;;
79488;BMP180;68949;53.176;18.088;2023-05-07T03:08:22;101416.60;;;
79488;BMP180;68949;53.176;18.088;2023-05-07T03:10:49;101419.80;;;
79488;BMP180;68949;53.176;18.088;2023-05-07T03:13:16;101416.00;;;
79488;BMP180;68949;53.176;18.088;2023-05-07T03:15:43;101424.40;;;
79488;BMP180;68949;53.176;18.088;2023-05-07T03:18:10;101432.40;;;
79488;BMP180;68949;53.176;18.088;2023-05-07T03:20:37;101431.00;;;
79488;BMP180;68949;53.176;18.088;2023-05-07T03:23:04;101436.00;;;
79488;BMP180;68949;53.176;18.088;2023-05-07T03:25:32;101435.60;;;
79488;BMP180;68949;53.176;18.088;2023-05-07T03:27:59;101444.80;;;
79488;BMP180;68949;53.176;18.088;2023-05-07T03:30:30;101439.60;;;
79488;BMP180;68949;53.176;18.088;2023-05-07T03:32:57;101445.20;;;
79488;BMP180;68949;53.176;18.088;2023-05-07T03:35:23;101449.00;;;
79488;BMP180;68949;53.176;18.088;2023-05-07T03:37:51;101452.00;;;
79488;BMP180;68949;53.176;18.088;2023-05-07T03:40:18;101448.40;;;
79488;BMP180;68949;53.176;18.088;2023-05-07T03:42:48;101444.60;;;
79488;BMP180;68949;53.176;18.088;2023-05-07T03:45:15;101452.60;;;
79488;BMP180;68949;53.176;18.088;2023-05-07T03:47:45;101445.20;;;
79488;BMP180;68949;53.176;18.088;2023-05-07T03:50:13;101437.40;;;
79488;BMP180;68949;53.176;18.088;2023-05-07T03:52:40;101439.20;;;
79488;BMP180;68949;53.176;18.088;2023-05-07T03:55:08;101434.00;;;
79488;BMP180;68949;53.176;18.088;2023-05-07T03:57:35;101429.80;;;
79488;BMP180;68949;53.176;18.088;2023-05-07T04:00:02;101434.00;;;
79488;BMP180;68949;53.176;18.088;2023-05-07T04:02:33;101437.80;;;
79488;BMP180;68949;53.176;18.088;2023-05-07T04:05:00;101433.40;;;
79488;BMP180;68949;53.176;18.088;2023-05-07T04:07:27;101431.60;;;
79488;BMP180;68949;53.176;18.088;2023-05-07T04:09:54;101431.00;;;
79488;BMP180;68949;53.176;18.088;2023-05-07T04:12:21;101434.80;;;
79488;BMP180;68949;53.176;18.088;2023-05-07T04:14:49;101440.40;;;
79488;BMP180;68949;53.176;18.088;2023-05-07T04:17:16;101439.40;;;
79488;BMP180;68949;53.176;18.088;2023-05-07T04:19:46;101440.00;;;
79488;BMP180;68949;53.176;18.088;2023-05-07T04:22:16;101440.80;;;
79488;BMP180;68949;53.176;18.088;2023-05-07T04:24:43;101443.00;;;
79488;BMP180;68949;53.176;18.088;2023-05-07T04:27:13;101448.00;;;
79488;BMP180;68949;53.176;18.088;2023-05-07T04:29:39;101455.40;;;
79488;BMP180;68949;53.176;18.088;2023-05-07T04:32:09;101449.20;;;
79488;BMP180;68949;53.176;18.088;2023-05-07T04:34:37;101454.60;;;
79488;BMP180;68949;53.176;18.088;2023-05-07T04:37:04;101459.80;;;
79488;BMP180;68949;53.176;18.088;2023-05-07T04:39:32;101462.20;;;
79488;BMP180;68949;53.176;18.088;2023-05-07T04:41:59;101463.60;;;
79488;BMP180;68949;53.176;18.088;2023-05-07T04:44:27;101462.00;;;
79488;BMP180;68949;53.176;18.088;2023-05-07T04:46:54;101462.80;;;
79488;BMP180;68949;53.176;18.088;2023-05-07T04:49:21;101457.20;;;
79488;BMP180;68949;53.176;18.088;2023-05-07T04:51:48;101476.60;;;
79488;BMP180;68949;53.176;18.088;2023-05-07T04:54:17;101480.80;;;
79488;BMP180;68949;53.176;18.088;2023-05-07T04:56:44;101477.00;;;
79488;BMP180;68949;53.176;18.088;2023-05-07T04:59:11;101470.00;;;
79488;BMP180;68949;53.176;18.088;2023-05-07T05:01:37;101472.00;;;
79488;BMP180;68949;53.176;18.088;2023-05-07T05:04:04;101486.00;;;
79488;BMP180;68949;53.176;18.088;2023-05-07T05:06:31;101469.40;;;
79488;BMP180;68949;53.176;18.088;2023-05-07T05:09:02;101477.40;;;
79488;BMP180;68949;53.176;18.088;2023-05-07T05:11:42;101490.40;;;
79488;BMP180;68949;53.176;18.088;2023-05-07T05:14:08;101481.00;;;
79488;BMP180;68949;53.176;18.088;2023-05-07T05:16:35;101480.60;;;
79488;BMP180;68949;53.176;18.088;2023-05-07T05:19:02;101480.80;;;
79488;BMP180;68949;53.176;18.088;2023-05-07T05:21:29;101482.80;;;
79488;BMP180;68949;53.176;18.088;2023-05-07T05:23:58;101497.00;;;
79488;BMP180;68949;53.176;18.088;2023-05-07T05:26:25;101499.40;;;
79488;BMP180;68949;53.176;18.088;2023-05-07T05:28:52;101486.00;;;
79488;BMP180;68949;53.176;18.088;2023-05-07T05:31:20;101485.00;;;
79488;BMP180;68949;53.176;18.088;2023-05-07T05:33:49;101478.40;;;
79488;BMP180;68949;53.176;18.088;2023-05-07T05:36:16;101487.80;;;
79488;BMP180;68949;53.176;18.088;2023-05-07T05:38:43;101491.60;;;
79488;BMP180;68949;53.176;18.088;2023-05-07T05:41:11;101480.40;;;
79488;BMP180;68949;53.176;18.088;2023-05-07T05:43:38;101487.80;;;
79488;BMP180;68949;53.176;18.088;2023-05-07T05:46:04;101489.80;;;
79488;BMP180;68949;53.176;18.088;2023-05-07T05:48:31;101506.20;;;
79488;BMP180;68949;53.176;18.088;2023-05-07T05:51:00;101505.80;;;
79488;BMP180;68949;53.176;18.088;2023-05-07T05:53:26;101504.00;;;
79488;BMP180;68949;53.176;18.088;2023-05-07T05:55:54;101481.20;;;
79488;BMP180;68949;53.176;18.088;2023-05-07T05:58:21;101487.00;;;
79488;BMP180;68949;53.176;18.088;2023-05-07T06:00:52;101481.60;;;
79488;BMP180;68949;53.176;18.088;2023-05-07T06:03:20;101485.00;;;
79488;BMP180;68949;53.176;18.088;2023-05-07T06:05:47;101505.40;;;
79488;BMP180;68949;53.176;18.088;2023-05-07T06:08:15;101493.40;;;
79488;BMP180;68949;53.176;18.088;2023-05-07T06:10:42;101491.60;;;
79488;BMP180;68949;53.176;18.088;2023-05-07T06:13:08;101512.00;;;
79488;BMP180;68949;53.176;18.088;2023-05-07T06:15:36;101512.00;;;
79488;BMP180;68949;53.176;18.088;2023-05-07T06:18:07;101504.60;;;
79488;BMP180;68949;53.176;18.088;2023-05-07T06:20:34;101491.60;;;
79488;BMP180;68949;53.176;18.088;2023-05-07T06:23:02;101505.40;;;
79488;BMP180;68949;53.176;18.088;2023-05-07T06:25:30;101508.60;;;
79488;BMP180;68949;53.176;18.088;2023-05-07T06:27:56;101507.80;;;
79488;BMP180;68949;53.176;18.088;2023-05-07T06:30:25;101512.40;;;
79488;BMP180;68949;53.176;18.088;2023-05-07T06:32:54;101497.20;;;
79488;BMP180;68949;53.176;18.088;2023-05-07T06:35:20;101499.00;;;
79488;BMP180;68949;53.176;18.088;2023-05-07T06:37:47;101497.20;;;
79488;BMP180;68949;53.176;18.088;2023-05-07T06:40:19;101494.60;;;
79488;BMP180;68949;53.176;18.088;2023-05-07T06:42:46;101491.80;;;
79488;BMP180;68949;53.176;18.088;2023-05-07T06:45:22;101498.40;;;
79488;BMP180;68949;53.176;18.088;2023-05-07T06:47:49;101494.60;;;
79488;BMP180;68949;53.176;18.088;2023-05-07T06:50:16;101490.60;;;
79488;BMP180;68949;53.176;18.088;2023-05-07T06:52:44;101496.20;;;
79488;BMP180;68949;53.176;18.088;2023-05-07T06:55:11;101507.20;;;
79488;BMP180;68949;53.176;18.088;2023-05-07T06:57:38;101506.40;;;
79488;BMP180;68949;53.176;18.088;2023-05-07T07:00:06;101515.20;;;
79488;BMP180;68949;53.176;18.088;2023-05-07T07:02:41;101502.40;;;
79488;BMP180;68949;53.176;18.088;2023-05-07T07:05:09;101512.60;;;
79488;BMP180;68949;53.176;18.088;2023-05-07T07:07:37;101497.00;;;
79488;BMP180;68949;53.176;18.088;2023-05-07T07:10:06;101510.20;;;
79488;BMP180;68949;53.176;18.088;2023-05-07T07:12:33;101519.20;;;
79488;BMP180;68949;53.176;18.088;2023-05-07T07:15:00;101508.40;;;
79488;BMP180;68949;53.176;18.088;2023-05-07T07:17:27;101488.00;;;
79488;BMP180;68949;53.176;18.088;2023-05-07T07:19:55;101514.60;;;
79488;BMP180;68949;53.176;18.088;2023-05-07T07:22:22;101498.60;;;
79488;BMP180;68949;53.176;18.088;2023-05-07T07:24:48;101494.00;;;
79488;BMP180;68949;53.176;18.088;2023-05-07T07:27:16;101493.60;;;
79488;BMP180;68949;53.176;18.088;2023-05-07T07:29:43;101506.40;;;
79488;BMP180;68949;53.176;18.088;2023-05-07T07:32:09;101522.60;;;
79488;BMP180;68949;53.176;18.088;2023-05-07T07:34:36;101509.80;;;
79488;BMP180;68949;53.176;18.088;2023-05-07T07:37:03;101506.60;;;
79488;BMP180;68949;53.176;18.088;2023-05-07T07:39:33;101512.20;;;
79488;BMP180;68949;53.176;18.088;2023-05-07T07:42:01;101499.20;;;
79488;BMP180;68949;53.176;18.088;2023-05-07T07:44:28;101519.20;;;
79488;BMP180;68949;53.176;18.088;2023-05-07T07:46:58;101508.80;;;
79488;BMP180;68949;53.176;18.088;2023-05-07T07:49:27;101502.40;;;
79488;BMP180;68949;53.176;18.088;2023-05-07T07:51:55;101529.40;;;
79488;BMP180;68949;53.176;18.088;2023-05-07T07:54:25;101520.60;;;
79488;BMP180;68949;53.176;18.088;2023-05-07T07:56:53;101511.60;;;
79488;BMP180;68949;53.176;18.088;2023-05-07T07:59:20;101513.20;;;
79488;BMP180;68949;53.176;18.088;2023-05-07T08:01:48;101530.00;;;
79488;BMP180;68949;53.176;18.088;2023-05-07T08:04:17;101520.60;;;
79488;BMP180;68949;53.176;18.088;2023-05-07T08:06:44;101509.40;;;
79488;BMP180;68949;53.176;18.088;2023-05-07T08:09:11;101526.20;;;
79488;BMP180;68949;53.176;18.088;2023-05-07T08:11:40;101515.80;;;
79488;BMP180;68949;53.176;18.088;2023-05-07T08:14:08;101520.80;;;
79488;BMP180;68949;53.176;18.088;2023-05-07T08:16:35;101521.60;;;
79488;BMP180;68949;53.176;18.088;2023-05-07T08:19:02;101532.40;;;
79488;BMP180;68949;53.176;18.088;2023-05-07T08:21:28;101521.00;;;
79488;BMP180;68949;53.176;18.088;2023-05-07T08:23:57;101514.40;;;
79488;BMP180;68949;53.176;18.088;2023-05-07T08:26:24;101516.40;;;
79488;BMP180;68949;53.176;18.088;2023-05-07T08:28:52;101524.80;;;
79488;BMP180;68949;53.176;18.088;2023-05-07T08:31:19;101512.60;;;
79488;BMP180;68949;53.176;18.088;2023-05-07T08:33:47;101528.80;;;
79488;BMP180;68949;53.176;18.088;2023-05-07T08:36:14;101508.40;;;
79488;BMP180;68949;53.176;18.088;2023-05-07T08:38:40;101514.60;;;
79488;BMP180;68949;53.176;18.088;2023-05-07T08:41:12;101491.20;;;
79488;BMP180;68949;53.176;18.088;2023-05-07T08:43:41;101494.80;;;
79488;BMP180;68949;53.176;18.088;2023-05-07T08:46:09;101525.00;;;
79488;BMP180;68949;53.176;18.088;2023-05-07T08:48:40;101549.40;;;
79488;BMP180;68949;53.176;18.088;2023-05-07T08:51:20;101528.00;;;
79488;BMP180;68949;53.176;18.088;2023-05-07T08:53:49;101516.20;;;
79488;BMP180;68949;53.176;18.088;2023-05-07T08:56:20;101523.40;;;
79488;BMP180;68949;53.176;18.088;2023-05-07T08:58:48;101510.20;;;
79488;BMP180;68949;53.176;18.088;2023-05-07T09:01:17;101524.20;;;
79488;BMP180;68949;53.176;18.088;2023-05-07T09:03:46;101526.00;;;
79488;BMP180;68949;53.176;18.088;2023-05-07T09:06:14;101541.20;;;
79488;BMP180;68949;53.176;18.088;2023-05-07T09:08:50;101516.40;;;
79488;BMP180;68949;53.176;18.088;2023-05-07T09:11:23;101513.80;;;
79488;BMP180;68949;53.176;18.088;2023-05-07T09:13:55;101537.60;;;
79488;BMP180;68949;53.176;18.088;2023-05-07T09:16:30;101521.00;;;
79488;BMP180;68949;53.176;18.088;2023-05-07T09:18:59;101518.80;;;
79488;BMP180;68949;53.176;18.088;2023-05-07T09:21:30;101544.20;;;
79488;BMP180;68949;53.176;18.088;2023-05-07T09:23:58;101509.00;;;
79488;BMP180;68949;53.176;18.088;2023-05-07T09:26:30;101520.80;;;
79488;BMP180;68949;53.176;18.088;2023-05-07T09:28:59;101506.60;;;
79488;BMP180;68949;53.176;18.088;2023-05-07T09:31:26;101526.40;;;
79488;BMP180;68949;53.176;18.088;2023-05-07T09:33:54;101526.40;;;
79488;BMP180;68949;53.176;18.088;2023-05-07T09:36:23;101511.00;;;
79488;BMP180;68949;53.176;18.088;2023-05-07T09:38:50;101542.20;;;
79488;BMP180;68949;53.176;18.088;2023-05-07T09:41:18;101524.60;;;
79488;BMP180;68949;53.176;18.088;2023-05-07T09:44:06;101543.40;;;
79488;BMP180;68949;53.176;18.088;2023-05-07T09:46:38;101532.60;;;
79488;BMP180;68949;53.176;18.088;2023-05-07T09:49:23;101537.60;;;
79488;BMP180;68949;53.176;18.088;2023-05-07T09:51:52;101531.60;;;
79488;BMP180;68949;53.176;18.088;2023-05-07T09:54:21;101534.60;;;
79488;BMP180;68949;53.176;18.088;2023-05-07T09:56:51;101522.20;;;
79488;BMP180;68949;53.176;18.088;2023-05-07T09:59:20;101552.00;;;
79488;BMP180;68949;53.176;18.088;2023-05-07T10:01:49;101555.20;;;
79488;BMP180;68949;53.176;18.088;2023-05-07T10:04:17;101529.80;;;
79488;BMP180;68949;53.176;18.088;2023-05-07T10:06:46;101546.00;;;
79488;BMP180;68949;53.176;18.088;2023-05-07T10:09:13;101559.20;;;
79488;BMP180;68949;53.176;18.088;2023-05-07T10:11:44;101572.60;;;
79488;BMP180;68949;53.176;18.088;2023-05-07T10:14:11;101569.20;;;
79488;BMP180;68949;53.176;18.088;2023-05-07T10:16:41;101559.80;;;
79488;BMP180;68949;53.176;18.088;2023-05-07T10:19:11;101546.40;;;
79488;BMP180;68949;53.176;18.088;2023-05-07T10:21:57;101558.80;;;
79488;BMP180;68949;53.176;18.088;2023-05-07T10:24:35;101554.00;;;
79488;BMP180;68949;53.176;18.088;2023-05-07T10:27:19;101546.40;;;
79488;BMP180;68949;53.176;18.088;2023-05-07T10:30:35;101565.80;;;
79488;BMP180;68949;53.176;18.088;2023-05-07T10:33:11;101563.00;;;
79488;BMP180;68949;53.176;18.088;2023-05-07T10:35:44;101560.40;;;
79488;BMP180;68949;53.176;18.088;2023-05-07T10:38:12;101558.60;;;
79488;BMP180;68949;53.176;18.088;2023-05-07T10:40:41;101534.80;;;
79488;BMP180;68949;53.176;18.088;2023-05-07T10:43:08;101547.40;;;
79488;BMP180;68949;53.176;18.088;2023-05-07T10:45:39;101536.40;;;
79488;BMP180;68949;53.176;18.088;2023-05-07T10:48:15;101554.00;;;
79488;BMP180;68949;53.176;18.088;2023-05-07T10:50:44;101557.60;;;
79488;BMP180;68949;53.176;18.088;2023-05-07T11:01:57;101534.20;;;
79488;BMP180;68949;53.176;18.088;2023-05-07T11:04:30;101544.00;;;
79488;BMP180;68949;53.176;18.088;2023-05-07T11:07:28;101553.00;;;
79488;BMP180;68949;53.176;18.088;2023-05-07T11:10:01;101543.60;;;
79488;BMP180;68949;53.176;18.088;2023-05-07T11:12:55;101523.20;;;
79488;BMP180;68949;53.176;18.088;2023-05-07T11:15:42;101566.40;;;
79488;BMP180;68949;53.176;18.088;2023-05-07T11:18:17;101537.20;;;
79488;BMP180;68949;53.176;18.088;2023-05-07T11:20:51;101560.40;;;
79488;BMP180;68949;53.176;18.088;2023-05-07T11:26:11;101560.80;;;
79488;BMP180;68949;53.176;18.088;2023-05-07T11:28:41;101548.00;;;
79488;BMP180;68949;53.176;18.088;2023-05-07T11:31:10;101556.20;;;
79488;BMP180;68949;53.176;18.088;2023-05-07T11:33:38;101561.40;;;
79488;BMP180;68949;53.176;18.088;2023-05-07T11:36:08;101552.60;;;
79488;BMP180;68949;53.176;18.088;2023-05-07T11:38:38;101545.40;;;
79488;BMP180;68949;53.176;18.088;2023-05-07T11:41:07;101520.80;;;
79488;BMP180;68949;53.176;18.088;2023-05-07T11:43:34;101528.00;;;
79488;BMP180;68949;53.176;18.088;2023-05-07T11:46:11;101540.20;;;
79488;BMP180;68949;53.176;18.088;2023-05-07T11:48:39;101544.40;;;
79488;BMP180;68949;53.176;18.088;2023-05-07T11:51:07;101542.60;;;
79488;BMP180;68949;53.176;18.088;2023-05-07T11:53:41;101531.20;;;
79488;BMP180;68949;53.176;18.088;2023-05-07T11:56:10;101554.20;;;
79488;BMP180;68949;53.176;18.088;2023-05-07T11:58:40;101547.00;;;
79488;BMP180;68949;53.176;18.088;2023-05-07T12:01:09;101545.20;;;
79488;BMP180;68949;53.176;18.088;2023-05-07T12:03:40;101559.00;;;
79488;BMP180;68949;53.176;18.088;2023-05-07T12:06:13;101557.60;;;
79488;BMP180;68949;53.176;18.088;2023-05-07T12:08:42;101557.00;;;
79488;BMP180;68949;53.176;18.088;2023-05-07T12:11:16;101558.60;;;
79488;BMP180;68949;53.176;18.088;2023-05-07T12:13:44;101559.80;;;
79488;BMP180;68949;53.176;18.088;2023-05-07T12:16:12;101564.60;;;
79488;BMP180;68949;53.176;18.088;2023-05-07T12:18:39;101553.80;;;
79488;BMP180;68949;53.176;18.088;2023-05-07T12:21:07;101556.40;;;
79488;BMP180;68949;53.176;18.088;2023-05-07T12:23:36;101555.80;;;
79488;BMP180;68949;53.176;18.088;2023-05-07T12:26:04;101573.20;;;
79488;BMP180;68949;53.176;18.088;2023-05-07T12:28:37;101561.80;;;
79488;BMP180;68949;53.176;18.088;2023-05-07T12:31:06;101550.80;;;
79488;BMP180;68949;53.176;18.088;2023-05-07T12:33:35;101552.20;;;
79488;BMP180;68949;53.176;18.088;2023-05-07T12:36:06;101572.40;;;
79488;BMP180;68949;53.176;18.088;2023-05-07T12:38:37;101569.00;;;
79488;BMP180;68949;53.176;18.088;2023-05-07T12:41:06;101559.00;;;
79488;BMP180;68949;53.176;18.088;2023-05-07T12:43:34;101571.80;;;
79488;BMP180;68949;53.176;18.088;2023-05-07T12:46:06;101570.40;;;
79488;BMP180;68949;53.176;18.088;2023-05-07T12:48:35;101571.40;;;
79488;BMP180;68949;53.176;18.088;2023-05-07T12:51:02;101556.40;;;
79488;BMP180;68949;53.176;18.088;2023-05-07T12:53:30;101559.00;;;
79488;BMP180;68949;53.176;18.088;2023-05-07T12:55:59;101545.20;;;
79488;BMP180;68949;53.176;18.088;2023-05-07T12:58:33;101551.60;;;
79488;BMP180;68949;53.176;18.088;2023-05-07T13:01:06;101560.00;;;
79488;BMP180;68949;53.176;18.088;2023-05-07T13:03:36;101561.40;;;
79488;BMP180;68949;53.176;18.088;2023-05-07T13:06:10;101565.00;;;
79488;BMP180;68949;53.176;18.088;2023-05-07T13:08:40;101572.60;;;
79488;BMP180;68949;53.176;18.088;2023-05-07T13:11:09;101543.60;;;
79488;BMP180;68949;53.176;18.088;2023-05-07T13:13:39;101560.80;;;
79488;BMP180;68949;53.176;18.088;2023-05-07T13:16:09;101560.80;;;
79488;BMP180;68949;53.176;18.088;2023-05-07T13:18:38;101548.00;;;
79488;BMP180;68949;53.176;18.088;2023-05-07T13:21:06;101545.80;;;
79488;BMP180;68949;53.176;18.088;2023-05-07T13:23:33;101540.80;;;
79488;BMP180;68949;53.176;18.088;2023-05-07T13:26:00;101548.20;;;
79488;BMP180;68949;53.176;18.088;2023-05-07T13:28:26;101540.40;;;
79488;BMP180;68949;53.176;18.088;2023-05-07T13:30:53;101551.60;;;
79488;BMP180;68949;53.176;18.088;2023-05-07T13:33:21;101550.60;;;
79488;BMP180;68949;53.176;18.088;2023-05-07T13:35:47;101539.40;;;
79488;BMP180;68949;53.176;18.088;2023-05-07T13:38:14;101531.60;;;
79488;BMP180;68949;53.176;18.088;2023-05-07T13:40:42;101528.00;;;
79488;BMP180;68949;53.176;18.088;2023-05-07T13:43:09;101539.20;;;
79488;BMP180;68949;53.176;18.088;2023-05-07T13:45:35;101553.00;;;
79488;BMP180;68949;53.176;18.088;2023-05-07T13:48:02;101548.20;;;
79488;BMP180;68949;53.176;18.088;2023-05-07T13:50:29;101545.60;;;
79488;BMP180;68949;53.176;18.088;2023-05-07T13:52:56;101536.20;;;
79488;BMP180;68949;53.176;18.088;2023-05-07T13:55:24;101551.80;;;
79488;BMP180;68949;53.176;18.088;2023-05-07T13:57:59;101546.80;;;
79488;BMP180;68949;53.176;18.088;2023-05-07T14:00:27;101560.60;;;
79488;BMP180;68949;53.176;18.088;2023-05-07T14:02:56;101559.20;;;
79488;BMP180;68949;53.176;18.088;2023-05-07T14:05:23;101542.80;;;
79488;BMP180;68949;53.176;18.088;2023-05-07T14:07:51;101541.40;;;
79488;BMP180;68949;53.176;18.088;2023-05-07T14:10:19;101536.60;;;
79488;BMP180;68949;53.176;18.088;2023-05-07T14:12:47;101546.40;;;
79488;BMP180;68949;53.176;18.088;2023-05-07T14:15:14;101553.20;;;
79488;BMP180;68949;53.176;18.088;2023-05-07T14:17:43;101538.80;;;
79488;BMP180;68949;53.176;18.088;2023-05-07T14:20:12;101549.00;;;
79488;BMP180;68949;53.176;18.088;2023-05-07T14:22:38;101538.40;;;
79488;BMP180;68949;53.176;18.088;2023-05-07T14:25:07;101532.60;;;
79488;BMP180;68949;53.176;18.088;2023-05-07T14:27:34;101507.40;;;
79488;BMP180;68949;53.176;18.088;2023-05-07T14:30:01;101548.40;;;
79488;BMP180;68949;53.176;18.088;2023-05-07T14:32:27;101544.80;;;
79488;BMP180;68949;53.176;18.088;2023-05-07T14:34:54;101533.40;;;
79488;BMP180;68949;53.176;18.088;2023-05-07T14:37:21;101523.40;;;
79488;BMP180;68949;53.176;18.088;2023-05-07T14:39:47;101520.60;;;
79488;BMP180;68949;53.176;18.088;2023-05-07T14:42:14;101524.20;;;
79488;BMP180;68949;53.176;18.088;2023-05-07T14:44:41;101521.40;;;
79488;BMP180;68949;53.176;18.088;2023-05-07T14:47:08;101510.60;;;
79488;BMP180;68949;53.176;18.088;2023-05-07T14:49:35;101506.40;;;
79488;BMP180;68949;53.176;18.088;2023-05-07T14:52:02;101509.60;;;
79488;BMP180;68949;53.176;18.088;2023-05-07T14:54:28;101516.40;;;
79488;BMP180;68949;53.176;18.088;2023-05-07T14:56:55;101520.20;;;
79488;BMP180;68949;53.176;18.088;2023-05-07T14:59:22;101529.60;;;
79488;BMP180;68949;53.176;18.088;2023-05-07T15:01:51;101541.40;;;
79488;BMP180;68949;53.176;18.088;2023-05-07T15:04:18;101535.20;;;
79488;BMP180;68949;53.176;18.088;2023-05-07T15:06:45;101530.00;;;
79488;BMP180;68949;53.176;18.088;2023-05-07T15:09:12;101543.40;;;